This is the latest recevied weather packets stored in our database for station/object SQ6XL-13. If no packets are shown the sender has not sent any weather packets the latest 10 day(s).
| Time | Temp. | Humidity | Pressure | Rain* | Wind** | Luminosity | Snow |
|---|---|---|---|---|---|---|---|
| 1777670182 | 7.78° C | 78% | 1026.2 hPa | 0 mm | - | - | - |
| 1777669677 | 8.33° C | 76% | 1026.2 hPa | 0 mm | - | - | - |
| 1777669091 | 8.89° C | 76% | 1026.1 hPa | 0 mm | - | - | - |
| 1777668517 | 8.89° C | 75% | 1026.2 hPa | 0 mm | - | - | - |
| 1777667991 | 8.89° C | 76% | 1026 hPa | 0 mm | - | - | - |
| 1777667482 | 8.89° C | 76% | 1026.2 hPa | 0 mm | - | - | - |
| 1777666887 | 8.89° C | 74% | 1026 hPa | 0 mm | - | - | - |
| 1777666351 | 9.44° C | 74% | 1026 hPa | 0 mm | - | - | - |
| 1777665811 | 9.44° C | 73% | 1026 hPa | 0 mm | - | - | - |
| 1777665327 | 9.44° C | 73% | 1026.1 hPa | 0 mm | - | - | - |
| 1777664782 | 10° C | 71% | 1026 hPa | 0 mm | - | - | - |
| 1777664197 | 10° C | 69% | 1025.9 hPa | 0 mm | - | - | - |
| 1777663631 | 10° C | 69% | 1025.8 hPa | 0 mm | - | - | - |
| 1777663046 | 10.56° C | 68% | 1025.9 hPa | 0 mm | - | - | - |
| 1777662501 | 10.56° C | 68% | 1025.9 hPa | 0 mm | - | - | - |
| 1777662007 | 11.11° C | 65% | 1025.8 hPa | 0 mm | - | - | - |
| 1777661437 | 11.67° C | 62% | 1025.8 hPa | 0 mm | - | - | - |
| 1777660857 | 12.22° C | 59% | 1025.7 hPa | 0 mm | - | - | - |
| 1777660322 | 12.78° C | 57% | 1025.6 hPa | 0 mm | - | - | - |
| 1777659787 | 13.89° C | 55% | 1025.6 hPa | 0 mm | - | - | - |
| 1777659232 | 15° C | 51% | 1025.4 hPa | 0 mm | - | - | - |
| 1777658671 | 16.67° C | 48% | 1025.4 hPa | 0 mm | - | - | - |
| 1777658147 | 17.22° C | 47% | 1025.4 hPa | 0 mm | - | - | - |
| 1777657627 | 17.22° C | 46% | 1025.4 hPa | 0 mm | - | - | - |
| 1777657102 | 17.78° C | 45% | 1025.4 hPa | 0 mm | - | - | - |
* Rain latest hour (hover to see other rain measurements)
** Current wind speed in m/s (hover to see current wind gust speed)